Terminal Aerodrome Forecast
Issued by NWS Bismarck, ND

Home | Current Version | Previous Version | Graphics & Text | Print | Product List | Glossary On
Versions: 1 2 3 4 5 6 7 8 9 10 11 12 13 14 15 16 17 18 19 20 21
870
FTUS43 KBIS 202331
TAFBIS
TAF
KBIS 202331Z 2100/2124 14018G23KT P6SM VCTS SCT090CB OVC150
      TEMPO 2100/2103 2SM TSRA BKN120CB
     FM210700 15005KT P6SM BKN080 BKN250 WS020/20040KT
     FM211100 VRB05KT P6SM FEW100 SCT250
     FM211700 31008KT P6SM FEW100 SCT200=

USA.gov is the U.S. government's official web portal to all federal, state and local government web resources and services.